Time;durP1;ratioP1;P1;durP2;ratioP2;P2;SDS_P1;SDS_P2;PMS_P1;PMS_P2;Temp;Humidity;BMP_temperature;BMP_pressure;BME280_temperature;BME280_humidity;BME280_pressure;Samples;Min_cycle;Max_cycle;Signal;HPM_P1;HPM_P2
2022/03/21 00:00:09;;;;;;;20.53;14.47;;;;;;;7.30;88.34;102178.09;679624;29;1939;-79
2022/03/21 00:00:44;;;;;;;19.90;13.88;;;;;;;7.33;90.26;102166.91;679339;29;1863;-78
2022/03/21 00:01:11;;;;;;;21.85;14.55;;;;;;;7.36;89.30;102166.13;677066;29;4364;-78
2022/03/21 00:01:32;;;;;;;21.88;14.75;;;;;;;7.35;90.02;102165.22;676909;29;1865;-79
2022/03/21 00:01:56;;;;;;;21.15;14.57;;;;;;;7.32;90.76;102171.22;677881;29;1595;-79
2022/03/21 00:02:16;;;;;;;21.50;15.10;;;;;;;7.30;91.70;102167.69;679487;29;1062;-78
2022/03/21 00:02:37;;;;;;;21.87;15.60;;;;;;;7.27;92.29;102187.50;679447;29;1148;-78
2022/03/21 00:03:01;;;;;;;21.45;15.63;;;;;;;7.26;93.25;102186.63;679060;29;1384;-79
2022/03/21 00:03:25;;;;;;;20.90;15.13;;;;;;;7.25;94.05;102168.38;677540;29;1582;-79
2022/03/21 00:03:45;;;;;;;21.73;15.50;;;;;;;7.20;94.36;102169.94;675909;29;1914;-79
2022/03/21 00:04:06;;;;;;;22.25;16.27;;;;;;;7.16;94.95;102171.56;674599;29;4347;-79
2022/03/21 00:04:27;;;;;;;22.37;15.67;;;;;;;7.12;95.92;102167.09;672745;29;2527;-79
2022/03/21 00:04:48;;;;;;;23.58;15.25;;;;;;;7.08;96.61;102173.00;675539;29;1273;-79
2022/03/21 00:05:09;;;;;;;22.08;15.35;;;;;;;7.05;96.59;102184.19;676480;29;1486;-79
2022/03/21 00:05:30;;;;;;;23.42;16.08;;;;;;;7.01;96.86;102169.31;676848;29;1722;-79
2022/03/21 00:05:51;;;;;;;24.00;16.00;;;;;;;6.97;97.82;102170.03;674870;29;1348;-79
2022/03/21 00:06:12;;;;;;;20.63;15.88;;;;;;;6.94;97.99;102181.22;676169;29;1362;-79
2022/03/21 00:06:33;;;;;;;21.40;15.63;;;;;;;6.91;98.08;102173.31;678649;29;1866;-79
2022/03/21 00:06:53;;;;;;;21.67;15.20;;;;;;;6.89;98.30;102174.09;681207;28;4372;-78
2022/03/21 00:07:14;;;;;;;21.93;14.93;;;;;;;6.85;98.56;102182.63;677132;29;1519;-79
2022/03/21 00:07:34;;;;;;;22.60;15.68;;;;;;;6.79;99.31;102181.56;676487;29;1184;-79
2022/03/21 00:07:55;;;;;;;24.07;16.20;;;;;;;6.76;99.18;102172.78;673856;29;1491;-78
2022/03/21 00:08:17;;;;;;;23.00;16.40;;;;;;;6.73;99.43;102168.38;674693;29;984;-79
2022/03/21 00:08:37;;;;;;;22.75;16.00;;;;;;;6.70;99.12;102176.06;676294;29;1572;-79
2022/03/21 00:08:58;;;;;;;22.85;15.48;;;;;;;6.71;97.14;102175.22;674433;29;1252;-79
2022/03/21 00:09:19;;;;;;;21.52;15.15;;;;;;;6.75;96.14;102169.28;674319;29;1366;-79
2022/03/21 00:09:39;;;;;;;19.83;14.47;;;;;;;6.77;96.82;102172.84;674339;29;1652;-79
2022/03/21 00:09:59;;;;;;;21.55;15.23;;;;;;;6.79;97.36;102168.56;673957;29;4372;-79
2022/03/21 00:10:20;;;;;;;21.70;15.47;;;;;;;6.81;97.73;102171.22;677540;29;1194;-79
2022/03/21 00:10:41;;;;;;;20.20;14.83;;;;;;;6.81;97.99;102171.22;679012;29;1448;-78
2022/03/21 00:11:02;;;;;;;20.88;15.60;;;;;;;6.80;98.73;102178.13;676831;29;1245;-79
2022/03/21 00:11:23;;;;;;;20.80;14.95;;;;;;;6.80;98.52;102165.16;677532;29;1589;-78
2022/03/21 00:11:44;;;;;;;21.98;15.88;;;;;;;6.81;97.71;102166.00;679439;29;1824;-79
2022/03/21 00:12:05;;;;;;;23.85;16.52;;;;;;;6.80;97.28;102165.16;678847;29;1179;-78
2022/03/21 00:12:25;;;;;;;23.25;16.08;;;;;;;6.80;96.71;102164.28;677727;29;1376;-79
2022/03/21 00:12:45;;;;;;;21.20;15.53;;;;;;;6.80;97.41;102165.16;672993;29;1521;-79
2022/03/21 00:13:08;;;;;;;23.42;16.80;;;;;;;6.79;97.40;102173.75;674090;29;4342;-78
2022/03/21 00:13:29;;;;;;;22.73;16.13;;;;;;;6.80;98.03;102172.94;674345;29;1598;-79
2022/03/21 00:13:53;;;;;;;22.02;15.75;;;;;;;6.81;98.07;102179.00;671766;29;1730;-81
2022/03/21 00:14:13;;;;;;;22.13;16.02;;;;;;;6.79;97.69;102168.56;674119;29;1612;-79
2022/03/21 00:14:34;;;;;;;20.63;15.60;;;;;;;6.81;98.32;102169.53;673996;29;1685;-79
2022/03/21 00:14:54;;;;;;;21.07;15.40;;;;;;;6.80;99.25;102180.75;679558;29;1444;-79
2022/03/21 00:15:15;;;;;;;22.13;15.52;;;;;;;6.78;99.58;102195.41;681713;28;1424;-79
2022/03/21 00:15:36;;;;;;;20.02;15.38;;;;;;;6.76;100.00;102181.47;677096;29;1424;-79
2022/03/21 00:15:57;;;;;;;21.17;15.68;;;;;;;6.74;100.00;102185.75;679054;29;4354;-79
2022/03/21 00:16:18;;;;;;;22.38;16.17;;;;;;;6.71;100.00;102180.41;678815;29;1307;-78
2022/03/21 00:16:39;;;;;;;23.88;16.20;;;;;;;6.70;100.00;102169.97;677749;29;1281;-79
2022/03/21 00:16:59;;;;;;;23.75;16.40;;;;;;;6.70;100.00;102172.56;676855;29;1756;-79
2022/03/21 00:17:20;;;;;;;21.37;15.87;;;;;;;6.67;100.00;102173.34;677897;29;1459;-79
2022/03/21 00:17:41;;;;;;;21.75;15.95;;;;;;;6.67;100.00;102175.94;673972;29;1359;-79
2022/03/21 00:18:04;;;;;;;21.23;15.90;;;;;;;6.69;99.30;102163.88;671624;29;1831;-79
2022/03/21 00:18:25;;;;;;;21.05;15.07;;;;;;;6.67;100.00;102178.53;673911;29;1330;-78
2022/03/21 00:18:46;;;;;;;22.85;15.70;;;;;;;6.67;100.00;102167.25;675766;29;1454;-79
2022/03/21 00:19:07;;;;;;;22.80;15.73;;;;;;;6.66;99.21;102166.38;676447;29;4341;-79
2022/03/21 00:19:28;;;;;;;20.83;15.88;;;;;;;6.68;98.71;102169.03;677300;29;1063;-79
2022/03/21 00:19:48;;;;;;;21.13;15.77;;;;;;;6.71;98.09;102158.75;676601;29;1471;-79
2022/03/21 00:20:10;;;;;;;21.67;14.80;;;;;;;6.74;99.48;102170.13;676276;29;3948;-79
2022/03/21 00:20:31;;;;;;;23.85;16.05;;;;;;;6.71;100.00;102169.13;677614;29;1874;-79
2022/03/21 00:20:53;;;;;;;21.13;16.13;;;;;;;6.70;99.79;102168.25;681823;28;1836;-79
2022/03/21 00:21:14;;;;;;;21.10;16.65;;;;;;;6.70;99.87;102163.06;681450;28;1448;-79
2022/03/21 00:21:35;;;;;;;21.70;15.77;;;;;;;6.71;99.76;102162.22;680248;29;1476;-79
2022/03/21 00:21:55;;;;;;;22.60;16.20;;;;;;;6.72;100.00;102169.19;678235;29;4324;-79
2022/03/21 00:22:15;;;;;;;23.55;16.92;;;;;;;6.73;98.45;102165.75;675344;29;971;-79
2022/03/21 00:22:37;;;;;;;24.63;16.83;;;;;;;6.74;97.95;102162.34;676378;29;1457;-79
2022/03/21 00:22:58;;;;;;;25.10;16.45;;;;;;;6.74;98.42;102159.75;676176;29;1313;-80
2022/03/21 00:23:19;;;;;;;22.58;16.50;;;;;;;6.74;97.69;102159.75;680178;29;1630;-79
2022/03/21 00:23:40;;;;;;;20.90;16.00;;;;;;;6.75;97.74;102166.69;679464;29;1214;-79
2022/03/21 00:24:01;;;;;;;21.48;15.82;;;;;;;6.76;98.20;102168.47;682719;28;1921;-79
2022/03/21 00:24:21;;;;;;;22.42;15.88;;;;;;;6.77;98.17;102174.53;685066;28;1440;-79
2022/03/21 00:24:42;;;;;;;21.05;15.88;;;;;;;6.76;99.56;102163.28;681110;29;1442;-79
2022/03/21 00:25:05;;;;;;;23.17;16.73;;;;;;;6.75;100.00;102164.09;678820;29;4305;-79
2022/03/21 00:25:26;;;;;;;23.33;16.42;;;;;;;6.71;100.00;102164.81;678983;29;1312;-79
2022/03/21 00:25:46;;;;;;;22.58;16.85;;;;;;;6.66;100.00;102161.19;678927;29;1422;-79
2022/03/21 00:26:07;;;;;;;24.03;16.63;;;;;;;6.64;100.00;102161.09;677509;29;1754;-79
2022/03/21 00:26:27;;;;;;;22.63;16.07;;;;;;;6.69;99.27;102161.28;676703;29;1599;-79
2022/03/21 00:26:48;;;;;;;20.07;14.80;;;;;;;6.73;98.75;102163.16;678133;29;1496;-79
2022/03/21 00:27:20;;;;;;;21.35;15.23;;;;;;;6.81;97.16;102166.91;676567;29;1811;-79
2022/03/21 00:27:48;;;;;;;21.02;15.15;;;;;;;6.85;95.41;102167.03;676446;29;1697;-80
2022/03/21 00:28:10;;;;;;;20.90;15.48;;;;;;;6.88;94.77;102162.81;676796;29;4317;-79
2022/03/21 00:28:30;;;;;;;20.23;15.57;;;;;;;6.94;94.38;102180.34;676850;29;1445;-79
2022/03/21 00:28:54;;;;;;;18.20;14.77;;;;;;;6.99;93.99;102165.75;679406;29;1631;-79
2022/03/21 00:29:14;;;;;;;19.70;15.20;;;;;;;7.05;92.99;102180.69;679513;29;1439;-79
2022/03/21 00:29:35;;;;;;;20.40;15.52;;;;;;;7.06;93.00;102165.16;677658;29;1365;-79
2022/03/21 00:29:55;;;;;;;20.40;15.53;;;;;;;7.11;92.42;102168.78;676029;29;1326;-79
2022/03/21 00:30:16;;;;;;;21.10;15.32;;;;;;;7.15;91.84;102169.78;675698;29;1410;-79
2022/03/21 00:30:39;;;;;;;21.58;15.15;;;;;;;7.16;91.77;102163.75;677158;29;1772;-79
2022/03/21 00:31:01;;;;;;;20.75;14.70;;;;;;;7.16;92.61;102169.81;679353;29;4318;-79
2022/03/21 00:31:22;;;;;;;24.55;16.08;;;;;;;7.15;95.16;102168.06;675599;29;1229;-78
2022/03/21 00:31:44;;;;;;;23.70;16.00;;;;;;;7.12;95.92;102167.97;678224;29;1299;-79
2022/03/21 00:32:06;;;;;;;21.38;15.48;;;;;;;7.10;96.29;102168.72;676590;29;1557;-79
2022/03/21 00:32:27;;;;;;;22.92;15.80;;;;;;;7.07;97.30;102176.44;679317;29;1150;-79
2022/03/21 00:32:48;;;;;;;21.90;16.05;;;;;;;7.04;98.64;102174.63;680105;29;1730;-79
2022/03/21 00:33:09;;;;;;;21.75;15.95;;;;;;;7.00;99.52;102170.13;678080;29;1934;-79
2022/03/21 00:33:30;;;;;;;21.84;15.94;;;;;;;6.96;99.25;102163.06;676123;29;1800;-78
2022/03/21 00:33:51;;;;;;;22.05;16.50;;;;;;;6.92;99.46;102180.28;674111;29;1467;-79
2022/03/21 00:34:11;;;;;;;21.70;16.33;;;;;;;6.91;100.00;102177.63;671862;29;4479;-80
2022/03/21 00:34:32;;;;;;;22.77;16.65;;;;;;;6.87;99.50;102176.66;673623;29;1886;-79
2022/03/21 00:34:52;;;;;;;22.80;16.27;;;;;;;6.85;100.00;102177.41;673030;29;2243;-78
2022/03/21 00:35:16;;;;;;;21.02;16.08;;;;;;;6.82;100.00;102173.88;671705;29;1769;-79
2022/03/21 00:35:39;;;;;;;23.15;16.55;;;;;;;6.80;100.00;102172.94;673629;29;1559;-79
2022/03/21 00:36:00;;;;;;;23.10;16.45;;;;;;;6.77;100.00;102174.53;673944;29;1477;-79
2022/03/21 00:36:22;;;;;;;22.13;16.80;;;;;;;6.75;100.00;102171.88;673684;29;1792;-79
2022/03/21 00:36:43;;;;;;;21.90;16.42;;;;;;;6.73;100.00;102170.97;670456;29;1644;-79
2022/03/21 00:37:04;;;;;;;22.75;16.60;;;;;;;6.69;100.00;102161.28;674060;29;4335;-79
2022/03/21 00:37:25;;;;;;;22.95;16.73;;;;;;;6.67;100.00;102167.25;670829;29;1488;-79
2022/03/21 00:37:47;;;;;;;22.55;16.25;;;;;;;6.62;100.00;102170.56;672278;29;1793;-79
2022/03/21 00:38:13;;;;;;;22.05;16.27;;;;;;;6.60;100.00;102164.44;676443;29;1254;-79
2022/03/21 00:38:35;;;;;;;24.65;17.13;;;;;;;6.55;100.00;102162.50;676380;29;1535;-79
2022/03/21 00:38:57;;;;;;;25.20;17.40;;;;;;;6.52;100.00;102157.19;679341;28;4334;-79
2022/03/21 00:39:17;;;;;;;23.40;17.08;;;;;;;6.49;100.00;102157.97;676833;29;1202;-79
2022/03/21 00:39:39;;;;;;;23.45;17.05;;;;;;;6.48;100.00;102157.09;675102;29;1353;-79
2022/03/21 00:40:00;;;;;;;23.25;16.63;;;;;;;6.48;100.00;102162.28;673490;29;4342;-79
2022/03/21 00:40:24;;;;;;;23.85;16.75;;;;;;;6.51;100.00;102165.81;674236;29;1377;-79
2022/03/21 00:40:46;;;;;;;23.05;16.60;;;;;;;6.51;100.00;102156.31;674096;29;1321;-80
2022/03/21 00:41:07;;;;;;;22.40;16.50;;;;;;;6.52;100.00;102162.41;676727;29;1277;-79
2022/03/21 00:41:31;;;;;;;23.55;16.85;;;;;;;6.51;100.00;102163.22;673916;29;1764;-79
2022/03/21 00:41:52;;;;;;;23.40;16.33;;;;;;;6.48;100.00;102151.91;671312;29;2028;-79
2022/03/21 00:42:12;;;;;;;23.95;16.65;;;;;;;6.47;100.00;102159.63;672742;29;2296;-79
2022/03/21 00:42:35;;;;;;;24.77;17.20;;;;;;;6.44;100.00;102162.13;673374;29;1488;-80
2022/03/21 00:42:56;;;;;;;24.60;17.40;;;;;;;6.43;100.00;102148.25;672877;29;4529;-79
2022/03/21 00:43:22;;;;;;;24.55;17.08;;;;;;;6.43;100.00;102147.38;675904;29;1276;-79
2022/03/21 00:43:42;;;;;;;25.05;17.20;;;;;;;6.42;100.00;102184.56;677055;29;1532;-79
2022/03/21 00:44:04;;;;;;;22.25;16.65;;;;;;;6.42;100.00;102141.28;675257;29;1570;-79
2022/03/21 00:44:24;;;;;;;20.08;15.48;;;;;;;6.47;100.00;102165.72;676578;29;1303;-79
2022/03/21 00:44:45;;;;;;;21.27;16.00;;;;;;;6.47;100.00;102162.25;678325;29;1309;-79
2022/03/21 00:45:11;;;;;;;23.80;16.47;;;;;;;6.47;100.00;102144.06;680276;29;1550;-78
2022/03/21 00:45:32;;;;;;;21.30;16.17;;;;;;;6.52;100.00;102167.59;681931;28;1831;-79
2022/03/21 00:45:55;;;;;;;20.77;15.27;;;;;;;6.58;100.00;102152.25;681915;28;1860;-79
2022/03/21 00:46:15;;;;;;;21.65;15.07;;;;;;;6.63;99.42;102163.66;677346;29;4922;-79
2022/03/21 00:46:36;;;;;;;22.77;15.60;;;;;;;6.67;99.15;102162.94;676722;29;1244;-79
2022/03/21 00:46:56;;;;;;;22.33;15.65;;;;;;;6.73;97.52;102151.88;676519;29;1470;-79
2022/03/21 00:47:17;;;;;;;20.90;15.50;;;;;;;6.76;96.52;102142.47;674076;29;1641;-79
2022/03/21 00:47:38;;;;;;;19.85;14.68;;;;;;;6.79;96.20;102152.09;674887;29;1236;-79
2022/03/21 00:47:58;;;;;;;21.10;15.27;;;;;;;6.85;95.39;102147.09;675508;29;1611;-79
2022/03/21 00:48:23;;;;;;;20.90;15.00;;;;;;;6.89;95.54;102143.78;678415;29;2438;-79
2022/03/21 00:48:44;;;;;;;22.05;15.43;;;;;;;6.93;95.10;102150.84;677899;29;1153;-79
2022/03/21 00:49:08;;;;;;;22.90;15.43;;;;;;;6.96;95.31;102142.28;677819;29;4466;-79
2022/03/21 00:49:28;;;;;;;21.70;15.23;;;;;;;6.95;99.42;102143.09;676834;29;1698;-79
2022/03/21 00:49:48;;;;;;;22.43;15.90;;;;;;;6.93;99.33;102148.25;677256;29;1114;-79
2022/03/21 00:50:11;;;;;;;21.87;15.60;;;;;;;6.90;99.25;102145.53;677846;29;1453;-79
2022/03/21 00:50:32;;;;;;;20.48;15.60;;;;;;;6.86;99.23;102146.28;673970;29;1478;-79
2022/03/21 00:50:54;;;;;;;24.03;15.93;;;;;;;6.81;100.00;102148.72;674451;29;2307;-79
2022/03/21 00:51:15;;;;;;;22.42;16.05;;;;;;;6.81;99.44;102151.31;671345;29;1692;-79
2022/03/21 00:51:35;;;;;;;20.47;15.57;;;;;;;6.83;97.56;102148.78;673641;29;1525;-79
2022/03/21 00:51:55;;;;;;;20.48;15.30;;;;;;;6.89;96.83;102150.69;677082;29;4301;-79
2022/03/21 00:52:16;;;;;;;23.07;15.90;;;;;;;6.86;100.00;102142.81;675871;29;1782;-79
2022/03/21 00:52:46;;;;;;;22.38;16.08;;;;;;;6.79;100.00;102147.78;675651;29;1484;-79
2022/03/21 00:53:07;;;;;;;22.00;15.57;;;;;;;6.81;97.95;102166.91;680268;29;1344;-79
2022/03/21 00:53:27;;;;;;;20.83;15.15;;;;;;;6.84;97.48;102165.25;681155;29;1422;-79
2022/03/21 00:53:48;;;;;;;21.37;14.80;;;;;;;6.88;95.17;102146.31;675480;29;1312;-79
2022/03/21 00:54:08;;;;;;;21.92;14.63;;;;;;;6.92;95.63;102140.41;676039;29;1854;-79
2022/03/21 00:54:28;;;;;;;20.13;14.40;;;;;;;6.96;94.92;102161.38;671895;29;1115;-79
2022/03/21 00:54:49;;;;;;;19.02;14.15;;;;;;;7.00;94.27;102151.94;672203;29;1509;-79
2022/03/21 00:55:11;;;;;;;21.30;15.27;;;;;;;7.03;94.61;102154.63;675357;29;4301;-79
2022/03/21 00:55:31;;;;;;;22.25;15.25;;;;;;;7.03;93.86;102149.44;678655;29;1469;-79
2022/03/21 00:55:52;;;;;;;22.35;15.13;;;;;;;7.08;93.51;102155.69;677983;29;1872;-79
2022/03/21 00:56:13;;;;;;;22.40;15.00;;;;;;;7.09;93.26;102154.84;677624;29;1535;-79
2022/03/21 00:56:33;;;;;;;20.25;14.50;;;;;;;7.09;93.45;102157.47;678444;29;1633;-79
2022/03/21 00:56:54;;;;;;;21.73;14.83;;;;;;;7.13;93.29;102153.22;674592;29;1698;-79
2022/03/21 00:57:14;;;;;;;20.03;14.57;;;;;;;7.15;93.00;102168.06;677834;29;1501;-79
2022/03/21 00:57:36;;;;;;;21.53;14.50;;;;;;;7.19;92.71;102165.56;679193;29;1279;-79
2022/03/21 00:57:59;;;;;;;20.92;14.52;;;;;;;7.20;92.50;102167.31;675418;29;4412;-80
2022/03/21 00:58:20;;;;;;;20.15;14.25;;;;;;;7.23;92.55;102151.84;676653;28;1613;-79
2022/03/21 00:58:40;;;;;;;21.48;14.63;;;;;;;7.22;93.55;102186.47;675145;29;1552;-79
2022/03/21 00:59:01;;;;;;;19.63;14.80;;;;;;;7.21;94.00;102158.69;678150;29;1689;-79
2022/03/21 00:59:21;;;;;;;20.60;15.37;;;;;;;7.20;97.42;102169.94;677413;29;1424;-79
2022/03/21 00:59:42;;;;;;;19.88;15.32;;;;;;;7.14;97.85;102165.41;674947;29;1391;-79
2022/03/21 01:00:06;;;;;;;20.37;15.60;;;;;;;7.09;98.18;102159.16;674155;29;1459;-80
2022/03/21 01:00:28;;;;;;;19.08;14.70;;;;;;;7.05;98.11;102176.38;674056;29;1652;-80
2022/03/21 01:00:49;;;;;;;22.02;15.43;;;;;;;7.01;99.55;102171.91;674357;29;1719;-79
2022/03/21 01:01:10;;;;;;;21.97;15.73;;;;;;;6.97;100.00;102173.50;675967;29;4831;-79
2022/03/21 01:01:30;;;;;;;20.70;15.68;;;;;;;6.93;100.00;102186.38;678206;29;1776;-79
2022/03/21 01:01:51;;;;;;;20.05;15.85;;;;;;;6.88;100.00;102161.91;679712;28;1379;-79
2022/03/21 01:02:12;;;;;;;21.50;15.93;;;;;;;6.87;100.00;102170.53;679451;28;1834;-79
2022/03/21 01:02:33;;;;;;;21.20;15.40;;;;;;;6.83;100.00;102172.16;679265;29;1123;-80
2022/03/21 01:02:54;;;;;;;22.20;15.90;;;;;;;6.79;100.00;102165.09;677048;29;1183;-79
2022/03/21 01:03:15;;;;;;;22.85;16.13;;;;;;;6.76;100.00;102168.47;676679;29;1390;-79
2022/03/21 01:03:35;;;;;;;22.45;16.20;;;;;;;6.73;100.00;102183.06;671730;29;1233;-79
2022/03/21 01:03:56;;;;;;;22.33;15.80;;;;;;;6.70;100.00;102168.25;668329;29;4674;-79
2022/03/21 01:04:17;;;;;;;22.65;15.98;;;;;;;6.67;100.00;102167.25;671458;29;1401;-80
2022/03/21 01:04:37;;;;;;;24.20;16.35;;;;;;;6.65;100.00;102167.22;671719;29;1865;-79
2022/03/21 01:04:57;;;;;;;24.63;16.87;;;;;;;6.62;100.00;102170.56;671705;29;1602;-79
2022/03/21 01:05:18;;;;;;;24.88;16.05;;;;;;;6.63;100.00;102169.75;672518;29;1286;-80
2022/03/21 01:05:39;;;;;;;21.85;15.45;;;;;;;6.67;100.00;102188.91;671351;29;1832;-79
2022/03/21 01:06:00;;;;;;;20.17;14.90;;;;;;;6.73;100.00;102180.44;676129;29;1636;-79
2022/03/21 01:06:22;;;;;;;20.47;15.07;;;;;;;6.77;99.71;102180.63;673259;29;1341;-79
2022/03/21 01:06:42;;;;;;;21.02;14.82;;;;;;;6.79;99.62;102180.69;675853;29;1384;-80
2022/03/21 01:07:03;;;;;;;21.00;15.07;;;;;;;6.80;100.00;102174.66;675000;29;4343;-79
2022/03/21 01:07:24;;;;;;;21.55;15.82;;;;;;;6.76;100.00;102189.25;677499;29;1764;-79
2022/03/21 01:07:44;;;;;;;21.13;16.07;;;;;;;6.73;100.00;102178.75;674319;29;1447;-79
2022/03/21 01:08:05;;;;;;;22.83;16.23;;;;;;;6.69;100.00;102179.47;677031;29;1239;-79
2022/03/21 01:08:26;;;;;;;24.08;16.33;;;;;;;6.67;100.00;102169.84;674087;29;1411;-79
2022/03/21 01:08:46;;;;;;;21.80;16.52;;;;;;;6.64;100.00;102168.03;679023;29;1576;-79
2022/03/21 01:09:06;;;;;;;20.87;16.37;;;;;;;6.62;100.00;102172.31;679778;29;1173;-80
2022/03/21 01:09:27;;;;;;;22.17;16.65;;;;;;;6.60;100.00;102172.22;680941;29;1666;-79
2022/03/21 01:09:47;;;;;;;21.60;16.13;;;;;;;6.58;100.00;102173.91;675918;29;1422;-79
2022/03/21 01:10:12;;;;;;;22.13;15.80;;;;;;;6.55;100.00;102167.69;675215;29;4259;-79
2022/03/21 01:10:33;;;;;;;25.42;16.55;;;;;;;6.53;100.00;102164.16;671199;29;1463;-80
2022/03/21 01:10:54;;;;;;;22.70;16.13;;;;;;;6.51;100.00;102177.09;675273;29;1379;-79
2022/03/21 01:11:14;;;;;;;23.30;16.43;;;;;;;6.50;100.00;102164.06;678059;29;1589;-79
2022/03/21 01:11:34;;;;;;;23.40;16.17;;;;;;;6.48;100.00;102166.63;679745;29;1772;-80
2022/03/21 01:11:55;;;;;;;24.07;16.87;;;;;;;6.47;100.00;102170.91;679961;29;1602;-79
2022/03/21 01:12:16;;;;;;;23.38;16.98;;;;;;;6.46;100.00;102169.13;676377;29;1259;-79
2022/03/21 01:12:36;;;;;;;22.27;15.90;;;;;;;6.45;100.00;102166.47;673057;29;1543;-79
2022/03/21 01:12:57;;;;;;;20.87;15.37;;;;;;;6.47;100.00;102175.22;674217;29;4353;-79
2022/03/21 01:13:18;;;;;;;19.77;14.85;;;;;;;6.52;100.00;102172.78;679423;29;1484;-79
2022/03/21 01:13:41;;;;;;;19.70;14.77;;;;;;;6.54;100.00;102166.81;677421;29;1442;-79
2022/03/21 01:14:02;;;;;;;21.15;15.05;;;;;;;6.61;100.00;102163.59;681434;29;1322;-79
2022/03/21 01:14:22;;;;;;;20.90;14.73;;;;;;;6.64;100.00;102184.50;679563;29;1542;-80
2022/03/21 01:14:43;;;;;;;20.23;14.27;;;;;;;6.67;99.93;102190.66;677297;29;1640;-79
2022/03/21 01:15:04;;;;;;;21.13;14.47;;;;;;;6.69;99.08;102189.88;677453;29;1283;-79
2022/03/21 01:15:27;;;;;;;20.00;14.25;;;;;;;6.71;98.21;102175.22;679926;29;1493;-79
2022/03/21 01:15:48;;;;;;;21.35;15.52;;;;;;;6.73;100.00;102167.47;676906;29;1587;-79
2022/03/21 01:16:09;;;;;;;23.43;15.57;;;;;;;6.67;100.00;102175.94;678794;29;4289;-79
2022/03/21 01:16:29;;;;;;;23.77;16.13;;;;;;;6.64;100.00;102166.31;678506;29;3486;-79
2022/03/21 01:16:54;;;;;;;22.77;16.43;;;;;;;6.61;100.00;102176.59;674410;29;1415;-79
2022/03/21 01:17:14;;;;;;;21.77;16.45;;;;;;;6.60;100.00;102176.53;679824;29;1828;-79
2022/03/21 01:17:35;;;;;;;23.75;16.80;;;;;;;6.60;100.00;102176.53;678920;29;1857;-79
2022/03/21 01:17:57;;;;;;;23.77;16.23;;;;;;;6.59;100.00;102172.16;679311;29;1063;-80
2022/03/21 01:18:17;;;;;;;22.33;15.82;;;;;;;6.57;100.00;102173.84;678766;29;1317;-79
2022/03/21 01:18:38;;;;;;;22.87;15.93;;;;;;;6.55;100.00;102175.50;678459;29;1704;-79
2022/03/21 01:18:58;;;;;;;22.98;16.38;;;;;;;6.55;100.00;102172.88;676082;29;4322;-79
2022/03/21 01:19:19;;;;;;;23.17;16.50;;;;;;;6.55;100.00;102176.38;678103;29;1595;-79
2022/03/21 01:19:39;;;;;;;22.02;16.58;;;;;;;6.52;100.00;102172.78;677641;29;1441;-79
2022/03/21 01:20:01;;;;;;;23.73;16.43;;;;;;;6.51;100.00;102176.19;677071;29;1591;-79
2022/03/21 01:20:22;;;;;;;22.38;16.15;;;;;;;6.48;100.00;102172.69;678312;29;1359;-79
2022/03/21 01:20:43;;;;;;;24.23;16.73;;;;;;;6.48;100.00;102180.47;673891;29;1567;-79
2022/03/21 01:21:03;;;;;;;23.77;16.73;;;;;;;6.45;100.00;102176.88;674538;29;1184;-79
2022/03/21 01:21:24;;;;;;;21.65;16.40;;;;;;;6.43;100.00;102173.34;674514;29;1303;-79
2022/03/21 01:21:44;;;;;;;23.67;16.43;;;;;;;6.42;100.00;102176.75;676660;29;1866;-79
2022/03/21 01:22:06;;;;;;;23.52;16.10;;;;;;;6.41;100.00;102170.69;676653;29;4503;-79
2022/03/21 01:22:26;;;;;;;23.42;16.15;;;;;;;6.38;100.00;102175.75;676464;29;1351;-79
2022/03/21 01:22:47;;;;;;;21.50;16.15;;;;;;;6.42;100.00;102187.16;675704;29;1497;-80
2022/03/21 01:23:11;;;;;;;20.90;14.88;;;;;;;6.47;100.00;102175.22;675957;29;1395;-79
2022/03/21 01:23:31;;;;;;;21.45;14.57;;;;;;;6.51;100.00;102177.09;676705;29;1779;-79
2022/03/21 01:23:52;;;;;;;19.80;14.77;;;;;;;6.55;100.00;102189.38;678506;29;1994;-80
2022/03/21 01:24:12;;;;;;;20.83;15.05;;;;;;;6.59;100.00;102186.06;678297;29;1106;-79
2022/03/21 01:24:35;;;;;;;20.23;15.30;;;;;;;6.63;100.00;102205.22;679047;28;1244;-79
2022/03/21 01:24:56;;;;;;;22.20;14.88;;;;;;;6.64;100.00;102187.09;678082;29;4323;-79
2022/03/21 01:25:17;;;;;;;20.23;14.40;;;;;;;6.63;100.00;102198.34;679154;29;1664;-79
2022/03/21 01:25:37;;;;;;;17.83;14.43;;;;;;;6.67;99.86;102175.94;679212;29;1353;-79
2022/03/21 01:25:58;;;;;;;19.77;15.15;;;;;;;6.66;100.00;102200.16;677142;29;1327;-80
2022/03/21 01:26:18;;;;;;;20.70;15.30;;;;;;;6.64;100.00;102200.09;675009;29;1623;-79
2022/03/21 01:26:39;;;;;;;23.83;15.88;;;;;;;6.63;100.00;102185.34;676964;29;1541;-79
2022/03/21 01:26:59;;;;;;;23.80;16.27;;;;;;;6.62;100.00;102193.09;674897;29;1323;-79
2022/03/21 01:27:21;;;;;;;21.95;16.50;;;;;;;6.60;100.00;102180.00;674883;29;1512;-79
2022/03/21 01:27:42;;;;;;;21.20;15.75;;;;;;;6.60;100.00;102184.34;672687;29;1538;-79
2022/03/21 01:28:03;;;;;;;22.38;15.73;;;;;;;6.57;100.00;102197.22;671340;29;4479;-80
2022/03/21 01:28:24;;;;;;;22.55;16.13;;;;;;;6.53;100.00;102170.25;674218;29;1340;-80
2022/03/21 01:28:44;;;;;;;21.43;15.50;;;;;;;6.52;100.00;102209.16;674271;29;1753;-79
2022/03/21 01:29:05;;;;;;;21.55;15.82;;;;;;;6.50;100.00;102172.72;676537;29;1285;-79
2022/03/21 01:29:25;;;;;;;21.05;15.80;;;;;;;6.51;100.00;102174.50;676359;29;1344;-80
2022/03/21 01:29:46;;;;;;;25.00;16.27;;;;;;;6.50;100.00;102195.25;679623;29;1263;-79
2022/03/21 01:30:11;;;;;;;24.98;16.50;;;;;;;6.51;100.00;102182.31;677346;29;1144;-79
2022/03/21 01:30:31;;;;;;;20.40;14.88;;;;;;;6.57;100.00;102181.63;676887;29;1471;-81
2022/03/21 01:30:52;;;;;;;20.38;14.50;;;;;;;6.58;100.00;102173.03;677538;29;1498;-79
2022/03/21 01:31:12;;;;;;;21.87;14.90;;;;;;;6.60;100.00;102181.75;678689;29;4291;-80
2022/03/21 01:31:33;;;;;;;23.30;14.93;;;;;;;6.62;99.70;102190.50;678285;28;1804;-79
2022/03/21 01:31:53;;;;;;;18.93;13.90;;;;;;;6.69;99.11;102181.19;672196;29;1607;-79
2022/03/21 01:32:13;;;;;;;19.50;14.30;;;;;;;6.78;97.81;102189.31;672568;29;1157;-81
2022/03/21 01:32:34;;;;;;;21.23;14.70;;;;;;;6.81;96.92;102182.53;669575;29;1303;-79
2022/03/21 01:32:55;;;;;;;22.20;14.90;;;;;;;6.88;96.66;102185.31;671698;29;1254;-79
2022/03/21 01:33:15;;;;;;;21.07;15.13;;;;;;;6.88;97.54;102172.31;671790;29;1656;-79
2022/03/21 01:33:37;;;;;;;21.25;15.02;;;;;;;6.84;100.00;102180.84;671682;29;1191;-79
2022/03/21 01:33:58;;;;;;;21.13;15.00;;;;;;;6.79;100.00;102194.56;670791;29;4365;-79
2022/03/21 01:34:18;;;;;;;22.13;15.43;;;;;;;6.77;100.00;102183.25;669259;29;806;-79
2022/03/21 01:34:39;;;;;;;22.13;16.13;;;;;;;6.73;100.00;102189.16;671685;29;1192;-79
2022/03/21 01:35:00;;;;;;;20.80;15.70;;;;;;;6.70;100.00;102178.66;676217;29;1321;-79
2022/03/21 01:35:21;;;;;;;21.40;15.40;;;;;;;6.68;100.00;102180.31;679359;29;1317;-79
2022/03/21 01:35:42;;;;;;;20.23;15.25;;;;;;;6.64;100.00;102196.63;676426;29;1866;-79
2022/03/21 01:36:02;;;;;;;20.88;15.27;;;;;;;6.62;100.00;102178.38;675684;29;1279;-79
2022/03/21 01:36:22;;;;;;;22.93;15.87;;;;;;;6.62;100.00;102180.09;671283;29;1621;-79
2022/03/21 01:36:43;;;;;;;22.30;15.90;;;;;;;6.60;100.00;102186.94;671714;29;1858;-79
2022/03/21 01:37:03;;;;;;;20.60;15.30;;;;;;;6.59;100.00;102183.47;671160;29;4347;-79
2022/03/21 01:37:24;;;;;;;21.13;14.75;;;;;;;6.61;100.00;102184.41;671643;29;1439;-79
2022/03/21 01:37:46;;;;;;;20.17;15.10;;;;;;;6.63;100.00;102184.44;674488;29;1158;-79
2022/03/21 01:38:06;;;;;;;20.90;14.90;;;;;;;6.64;100.00;102184.50;676607;29;1217;-79
2022/03/21 01:38:27;;;;;;;22.07;14.80;;;;;;;6.66;100.00;102187.19;677093;29;1789;-80
2022/03/21 01:38:47;;;;;;;20.03;14.77;;;;;;;6.69;99.71;102186.38;679377;29;1559;-79
2022/03/21 01:39:08;;;;;;;19.73;14.50;;;;;;;6.69;99.63;102188.97;674367;29;4762;-79
2022/03/21 01:39:28;;;;;;;20.27;14.18;;;;;;;6.69;99.20;102182.09;673609;29;1600;-79